sensor_id;sensor_type;location;lat;lon;timestamp;P1;P2;P0
52290;PMS5003;39663;45.432;28.050;2023-06-24T00:09:11;14.0;12.0;
52290;PMS5003;39663;45.432;28.050;2023-06-24T00:09:42;12.0;12.0;
52290;PMS5003;39663;45.432;28.050;2023-06-24T00:10:14;14.0;14.0;
52290;PMS5003;39663;45.432;28.050;2023-06-24T00:10:45;13.0;13.0;
52290;PMS5003;39663;45.432;28.050;2023-06-24T00:11:17;15.0;15.0;
52290;PMS5003;39663;45.432;28.050;2023-06-24T00:11:49;13.0;12.0;
52290;PMS5003;39663;45.432;28.050;2023-06-24T00:12:20;17.0;16.0;
52290;PMS5003;39663;45.432;28.050;2023-06-24T00:12:52;18.0;17.0;
52290;PMS5003;39663;45.432;28.050;2023-06-24T00:13:23;14.0;14.0;
52290;PMS5003;39663;45.432;28.050;2023-06-24T00:13:55;14.0;14.0;
52290;PMS5003;39663;45.432;28.050;2023-06-24T00:14:26;13.0;12.0;
52290;PMS5003;39663;45.432;28.050;2023-06-24T00:14:58;14.0;12.0;
52290;PMS5003;39663;45.432;28.050;2023-06-24T00:15:30;12.0;9.0;
52290;PMS5003;39663;45.432;28.050;2023-06-24T00:16:01;14.0;14.0;
52290;PMS5003;39663;45.432;28.050;2023-06-24T00:16:33;15.0;14.0;
52290;PMS5003;39663;45.432;28.050;2023-06-24T00:17:05;15.0;12.0;
52290;PMS5003;39663;45.432;28.050;2023-06-24T00:17:36;15.0;13.0;
52290;PMS5003;39663;45.432;28.050;2023-06-24T00:18:08;14.0;12.0;
52290;PMS5003;39663;45.432;28.050;2023-06-24T00:18:39;13.0;10.0;
52290;PMS5003;39663;45.432;28.050;2023-06-24T00:19:11;12.0;12.0;
52290;PMS5003;39663;45.432;28.050;2023-06-24T00:19:42;12.0;12.0;
52290;PMS5003;39663;45.432;28.050;2023-06-24T00:20:14;20.0;19.0;
52290;PMS5003;39663;45.432;28.050;2023-06-24T00:20:45;11.0;11.0;
52290;PMS5003;39663;45.432;28.050;2023-06-24T00:21:17;12.0;12.0;
52290;PMS5003;39663;45.432;28.050;2023-06-24T00:21:48;12.0;11.0;
52290;PMS5003;39663;45.432;28.050;2023-06-24T00:22:21;14.0;14.0;
52290;PMS5003;39663;45.432;28.050;2023-06-24T00:22:52;19.0;19.0;
52290;PMS5003;39663;45.432;28.050;2023-06-24T00:23:24;13.0;11.0;
52290;PMS5003;39663;45.432;28.050;2023-06-24T00:23:56;15.0;15.0;
52290;PMS5003;39663;45.432;28.050;2023-06-24T00:24:28;11.0;11.0;
52290;PMS5003;39663;45.432;28.050;2023-06-24T00:24:59;13.0;12.0;
52290;PMS5003;39663;45.432;28.050;2023-06-24T00:25:31;13.0;13.0;
52290;PMS5003;39663;45.432;28.050;2023-06-24T00:26:02;15.0;14.0;
52290;PMS5003;39663;45.432;28.050;2023-06-24T00:26:34;13.0;12.0;
52290;PMS5003;39663;45.432;28.050;2023-06-24T00:27:05;13.0;12.0;
52290;PMS5003;39663;45.432;28.050;2023-06-24T00:27:37;13.0;12.0;
52290;PMS5003;39663;45.432;28.050;2023-06-24T00:28:08;12.0;12.0;
52290;PMS5003;39663;45.432;28.050;2023-06-24T00:28:40;11.0;11.0;
52290;PMS5003;39663;45.432;28.050;2023-06-24T00:29:11;12.0;12.0;
52290;PMS5003;39663;45.432;28.050;2023-06-24T00:29:42;11.0;11.0;
52290;PMS5003;39663;45.432;28.050;2023-06-24T00:30:14;14.0;13.0;
52290;PMS5003;39663;45.432;28.050;2023-06-24T00:30:46;13.0;12.0;
52290;PMS5003;39663;45.432;28.050;2023-06-24T00:31:18;15.0;13.0;
52290;PMS5003;39663;45.432;28.050;2023-06-24T00:31:50;12.0;12.0;
52290;PMS5003;39663;45.432;28.050;2023-06-24T00:32:21;15.0;12.0;
52290;PMS5003;39663;45.432;28.050;2023-06-24T00:32:53;14.0;14.0;
52290;PMS5003;39663;45.432;28.050;2023-06-24T00:33:24;15.0;13.0;
52290;PMS5003;39663;45.432;28.050;2023-06-24T00:33:56;13.0;13.0;
52290;PMS5003;39663;45.432;28.050;2023-06-24T00:34:27;19.0;16.0;
52290;PMS5003;39663;45.432;28.050;2023-06-24T00:34:59;13.0;13.0;
52290;PMS5003;39663;45.432;28.050;2023-06-24T00:35:30;13.0;13.0;
52290;PMS5003;39663;45.432;28.050;2023-06-24T00:36:01;17.0;15.0;
52290;PMS5003;39663;45.432;28.050;2023-06-24T00:36:33;15.0;14.0;
52290;PMS5003;39663;45.432;28.050;2023-06-24T00:37:10;16.0;15.0;
52290;PMS5003;39663;45.432;28.050;2023-06-24T00:37:41;13.0;11.0;
52290;PMS5003;39663;45.432;28.050;2023-06-24T00:38:13;13.0;13.0;
52290;PMS5003;39663;45.432;28.050;2023-06-24T00:38:44;13.0;13.0;
52290;PMS5003;39663;45.432;28.050;2023-06-24T00:39:15;11.0;11.0;
52290;PMS5003;39663;45.432;28.050;2023-06-24T00:39:47;13.0;13.0;
52290;PMS5003;39663;45.432;28.050;2023-06-24T00:40:18;14.0;14.0;
52290;PMS5003;39663;45.432;28.050;2023-06-24T00:40:50;15.0;13.0;
52290;PMS5003;39663;45.432;28.050;2023-06-24T00:41:22;14.0;14.0;
52290;PMS5003;39663;45.432;28.050;2023-06-24T00:41:53;12.0;12.0;
52290;PMS5003;39663;45.432;28.050;2023-06-24T00:42:25;14.0;13.0;
52290;PMS5003;39663;45.432;28.050;2023-06-24T00:42:57;18.0;15.0;
52290;PMS5003;39663;45.432;28.050;2023-06-24T00:43:29;13.0;13.0;
52290;PMS5003;39663;45.432;28.050;2023-06-24T00:44:01;11.0;11.0;
52290;PMS5003;39663;45.432;28.050;2023-06-24T00:44:33;14.0;14.0;
52290;PMS5003;39663;45.432;28.050;2023-06-24T00:45:05;15.0;13.0;
52290;PMS5003;39663;45.432;28.050;2023-06-24T00:45:37;14.0;14.0;
52290;PMS5003;39663;45.432;28.050;2023-06-24T00:46:09;13.0;13.0;
52290;PMS5003;39663;45.432;28.050;2023-06-24T00:46:41;14.0;14.0;
52290;PMS5003;39663;45.432;28.050;2023-06-24T00:47:12;16.0;14.0;
52290;PMS5003;39663;45.432;28.050;2023-06-24T00:47:44;15.0;14.0;
52290;PMS5003;39663;45.432;28.050;2023-06-24T00:48:16;15.0;12.0;
52290;PMS5003;39663;45.432;28.050;2023-06-24T00:48:48;11.0;11.0;
52290;PMS5003;39663;45.432;28.050;2023-06-24T00:49:19;11.0;11.0;
52290;PMS5003;39663;45.432;28.050;2023-06-24T00:49:50;14.0;14.0;
52290;PMS5003;39663;45.432;28.050;2023-06-24T00:50:22;15.0;13.0;
52290;PMS5003;39663;45.432;28.050;2023-06-24T00:50:53;14.0;13.0;
52290;PMS5003;39663;45.432;28.050;2023-06-24T00:51:24;18.0;13.0;
52290;PMS5003;39663;45.432;28.050;2023-06-24T00:51:56;15.0;13.0;
52290;PMS5003;39663;45.432;28.050;2023-06-24T00:52:27;12.0;11.0;
52290;PMS5003;39663;45.432;28.050;2023-06-24T00:53:00;16.0;14.0;
52290;PMS5003;39663;45.432;28.050;2023-06-24T00:53:32;17.0;15.0;
52290;PMS5003;39663;45.432;28.050;2023-06-24T00:54:03;12.0;10.0;
52290;PMS5003;39663;45.432;28.050;2023-06-24T00:54:34;16.0;14.0;
52290;PMS5003;39663;45.432;28.050;2023-06-24T00:55:06;17.0;17.0;
52290;PMS5003;39663;45.432;28.050;2023-06-24T00:55:38;14.0;13.0;
52290;PMS5003;39663;45.432;28.050;2023-06-24T00:56:09;16.0;14.0;
52290;PMS5003;39663;45.432;28.050;2023-06-24T00:56:42;16.0;11.0;
52290;PMS5003;39663;45.432;28.050;2023-06-24T00:57:14;15.0;13.0;
52290;PMS5003;39663;45.432;28.050;2023-06-24T00:57:46;16.0;14.0;
52290;PMS5003;39663;45.432;28.050;2023-06-24T00:58:20;13.0;13.0;
52290;PMS5003;39663;45.432;28.050;2023-06-24T00:58:53;12.0;12.0;
52290;PMS5003;39663;45.432;28.050;2023-06-24T00:59:25;15.0;13.0;
52290;PMS5003;39663;45.432;28.050;2023-06-24T00:59:59;14.0;12.0;
52290;PMS5003;39663;45.432;28.050;2023-06-24T01:00:30;12.0;12.0;
52290;PMS5003;39663;45.432;28.050;2023-06-24T01:01:17;22.0;19.0;
52290;PMS5003;39663;45.432;28.050;2023-06-24T01:01:49;9.0;9.0;
52290;PMS5003;39663;45.432;28.050;2023-06-24T01:02:21;13.0;12.0;
52290;PMS5003;39663;45.432;28.050;2023-06-24T01:02:53;15.0;13.0;
52290;PMS5003;39663;45.432;28.050;2023-06-24T01:03:25;15.0;12.0;
52290;PMS5003;39663;45.432;28.050;2023-06-24T01:03:57;12.0;11.0;
52290;PMS5003;39663;45.432;28.050;2023-06-24T01:04:28;14.0;13.0;
52290;PMS5003;39663;45.432;28.050;2023-06-24T01:05:00;14.0;14.0;
52290;PMS5003;39663;45.432;28.050;2023-06-24T01:05:32;14.0;13.0;
52290;PMS5003;39663;45.432;28.050;2023-06-24T01:06:04;16.0;12.0;
52290;PMS5003;39663;45.432;28.050;2023-06-24T01:06:36;10.0;10.0;
52290;PMS5003;39663;45.432;28.050;2023-06-24T01:07:08;12.0;12.0;
52290;PMS5003;39663;45.432;28.050;2023-06-24T01:07:40;10.0;10.0;
52290;PMS5003;39663;45.432;28.050;2023-06-24T01:08:12;13.0;13.0;
52290;PMS5003;39663;45.432;28.050;2023-06-24T01:08:44;13.0;13.0;
52290;PMS5003;39663;45.432;28.050;2023-06-24T01:09:16;16.0;15.0;
52290;PMS5003;39663;45.432;28.050;2023-06-24T01:09:47;13.0;11.0;
52290;PMS5003;39663;45.432;28.050;2023-06-24T01:10:19;17.0;14.0;
52290;PMS5003;39663;45.432;28.050;2023-06-24T01:10:52;13.0;13.0;
52290;PMS5003;39663;45.432;28.050;2023-06-24T01:11:24;15.0;11.0;
52290;PMS5003;39663;45.432;28.050;2023-06-24T01:11:55;13.0;12.0;
52290;PMS5003;39663;45.432;28.050;2023-06-24T01:12:27;14.0;13.0;
52290;PMS5003;39663;45.432;28.050;2023-06-24T01:12:58;16.0;14.0;
52290;PMS5003;39663;45.432;28.050;2023-06-24T01:13:30;14.0;12.0;
52290;PMS5003;39663;45.432;28.050;2023-06-24T01:14:02;12.0;12.0;
52290;PMS5003;39663;45.432;28.050;2023-06-24T01:14:33;11.0;11.0;
52290;PMS5003;39663;45.432;28.050;2023-06-24T01:15:06;13.0;13.0;
52290;PMS5003;39663;45.432;28.050;2023-06-24T01:15:39;10.0;10.0;
52290;PMS5003;39663;45.432;28.050;2023-06-24T01:16:12;12.0;12.0;
52290;PMS5003;39663;45.432;28.050;2023-06-24T01:16:51;12.0;10.0;
52290;PMS5003;39663;45.432;28.050;2023-06-24T01:17:31;13.0;12.0;
52290;PMS5003;39663;45.432;28.050;2023-06-24T01:18:09;13.0;13.0;
52290;PMS5003;39663;45.432;28.050;2023-06-24T01:18:46;14.0;14.0;
52290;PMS5003;39663;45.432;28.050;2023-06-24T01:19:32;11.0;9.0;
52290;PMS5003;39663;45.432;28.050;2023-06-24T01:20:23;15.0;12.0;
52290;PMS5003;39663;45.432;28.050;2023-06-24T01:20:59;16.0;12.0;
52290;PMS5003;39663;45.432;28.050;2023-06-24T01:21:41;16.0;14.0;
52290;PMS5003;39663;45.432;28.050;2023-06-24T01:22:30;14.0;12.0;
52290;PMS5003;39663;45.432;28.050;2023-06-24T01:23:38;14.0;14.0;
52290;PMS5003;39663;45.432;28.050;2023-06-24T01:24:31;14.0;12.0;
52290;PMS5003;39663;45.432;28.050;2023-06-24T01:25:22;12.0;12.0;
52290;PMS5003;39663;45.432;28.050;2023-06-24T01:26:14;13.0;13.0;
52290;PMS5003;39663;45.432;28.050;2023-06-24T01:27:00;12.0;12.0;
52290;PMS5003;39663;45.432;28.050;2023-06-24T01:27:52;17.0;11.0;
52290;PMS5003;39663;45.432;28.050;2023-06-24T01:28:45;12.0;12.0;
52290;PMS5003;39663;45.432;28.050;2023-06-24T01:29:58;14.0;12.0;
52290;PMS5003;39663;45.432;28.050;2023-06-24T01:31:05;12.0;11.0;
52290;PMS5003;39663;45.432;28.050;2023-06-24T01:32:19;14.0;13.0;
52290;PMS5003;39663;45.432;28.050;2023-06-24T01:32:56;12.0;11.0;
52290;PMS5003;39663;45.432;28.050;2023-06-24T01:33:35;12.0;11.0;
52290;PMS5003;39663;45.432;28.050;2023-06-24T01:34:16;15.0;12.0;
52290;PMS5003;39663;45.432;28.050;2023-06-24T01:34:56;13.0;12.0;
52290;PMS5003;39663;45.432;28.050;2023-06-24T01:35:31;18.0;17.0;
52290;PMS5003;39663;45.432;28.050;2023-06-24T01:36:04;12.0;9.0;
52290;PMS5003;39663;45.432;28.050;2023-06-24T01:36:40;10.0;10.0;
52290;PMS5003;39663;45.432;28.050;2023-06-24T01:37:16;12.0;11.0;
52290;PMS5003;39663;45.432;28.050;2023-06-24T01:37:51;13.0;13.0;
52290;PMS5003;39663;45.432;28.050;2023-06-24T01:38:24;12.0;11.0;
52290;PMS5003;39663;45.432;28.050;2023-06-24T01:39:02;14.0;14.0;
52290;PMS5003;39663;45.432;28.050;2023-06-24T01:39:41;15.0;15.0;
52290;PMS5003;39663;45.432;28.050;2023-06-24T01:40:19;11.0;11.0;
52290;PMS5003;39663;45.432;28.050;2023-06-24T01:40:56;14.0;13.0;
52290;PMS5003;39663;45.432;28.050;2023-06-24T01:41:30;14.0;13.0;
52290;PMS5003;39663;45.432;28.050;2023-06-24T01:42:08;11.0;10.0;
52290;PMS5003;39663;45.432;28.050;2023-06-24T01:42:58;15.0;13.0;
52290;PMS5003;39663;45.432;28.050;2023-06-24T01:43:36;11.0;11.0;
52290;PMS5003;39663;45.432;28.050;2023-06-24T01:44:13;13.0;12.0;
52290;PMS5003;39663;45.432;28.050;2023-06-24T01:44:47;11.0;11.0;
52290;PMS5003;39663;45.432;28.050;2023-06-24T01:45:21;11.0;11.0;
52290;PMS5003;39663;45.432;28.050;2023-06-24T01:45:56;17.0;14.0;
52290;PMS5003;39663;45.432;28.050;2023-06-24T01:46:29;14.0;13.0;
52290;PMS5003;39663;45.432;28.050;2023-06-24T01:47:01;16.0;16.0;
52290;PMS5003;39663;45.432;28.050;2023-06-24T01:47:36;14.0;11.0;
52290;PMS5003;39663;45.432;28.050;2023-06-24T01:48:13;15.0;13.0;
52290;PMS5003;39663;45.432;28.050;2023-06-24T01:48:46;12.0;12.0;
52290;PMS5003;39663;45.432;28.050;2023-06-24T01:49:18;11.0;11.0;
52290;PMS5003;39663;45.432;28.050;2023-06-24T01:49:52;10.0;10.0;
52290;PMS5003;39663;45.432;28.050;2023-06-24T01:50:27;11.0;11.0;
52290;PMS5003;39663;45.432;28.050;2023-06-24T01:51:06;12.0;12.0;
52290;PMS5003;39663;45.432;28.050;2023-06-24T01:51:41;12.0;10.0;
52290;PMS5003;39663;45.432;28.050;2023-06-24T01:52:15;14.0;14.0;
52290;PMS5003;39663;45.432;28.050;2023-06-24T01:52:51;14.0;14.0;
52290;PMS5003;39663;45.432;28.050;2023-06-24T01:53:26;11.0;10.0;
52290;PMS5003;39663;45.432;28.050;2023-06-24T01:54:00;16.0;16.0;
52290;PMS5003;39663;45.432;28.050;2023-06-24T01:54:33;15.0;15.0;
52290;PMS5003;39663;45.432;28.050;2023-06-24T01:55:08;11.0;9.0;
52290;PMS5003;39663;45.432;28.050;2023-06-24T01:55:41;13.0;11.0;
52290;PMS5003;39663;45.432;28.050;2023-06-24T01:56:14;17.0;15.0;
52290;PMS5003;39663;45.432;28.050;2023-06-24T01:56:46;12.0;12.0;
52290;PMS5003;39663;45.432;28.050;2023-06-24T01:57:20;11.0;10.0;
52290;PMS5003;39663;45.432;28.050;2023-06-24T01:57:53;12.0;12.0;
52290;PMS5003;39663;45.432;28.050;2023-06-24T01:58:27;13.0;11.0;
52290;PMS5003;39663;45.432;28.050;2023-06-24T01:59:01;17.0;15.0;
52290;PMS5003;39663;45.432;28.050;2023-06-24T01:59:35;12.0;12.0;
52290;PMS5003;39663;45.432;28.050;2023-06-24T02:00:10;12.0;11.0;
52290;PMS5003;39663;45.432;28.050;2023-06-24T02:00:42;11.0;11.0;
52290;PMS5003;39663;45.432;28.050;2023-06-24T02:01:14;10.0;10.0;
52290;PMS5003;39663;45.432;28.050;2023-06-24T02:01:47;12.0;12.0;
52290;PMS5003;39663;45.432;28.050;2023-06-24T02:02:19;11.0;11.0;
52290;PMS5003;39663;45.432;28.050;2023-06-24T02:02:52;14.0;13.0;
52290;PMS5003;39663;45.432;28.050;2023-06-24T02:03:25;20.0;18.0;
52290;PMS5003;39663;45.432;28.050;2023-06-24T02:03:58;14.0;14.0;
52290;PMS5003;39663;45.432;28.050;2023-06-24T02:04:31;16.0;15.0;
52290;PMS5003;39663;45.432;28.050;2023-06-24T02:05:04;16.0;11.0;
52290;PMS5003;39663;45.432;28.050;2023-06-24T02:05:37;15.0;14.0;
52290;PMS5003;39663;45.432;28.050;2023-06-24T02:06:11;16.0;16.0;
52290;PMS5003;39663;45.432;28.050;2023-06-24T02:06:44;13.0;11.0;
52290;PMS5003;39663;45.432;28.050;2023-06-24T02:07:16;10.0;10.0;
52290;PMS5003;39663;45.432;28.050;2023-06-24T02:07:49;11.0;11.0;
52290;PMS5003;39663;45.432;28.050;2023-06-24T02:08:23;15.0;14.0;
52290;PMS5003;39663;45.432;28.050;2023-06-24T02:08:56;14.0;12.0;
52290;PMS5003;39663;45.432;28.050;2023-06-24T02:09:31;23.0;21.0;
52290;PMS5003;39663;45.432;28.050;2023-06-24T02:10:04;19.0;19.0;
52290;PMS5003;39663;45.432;28.050;2023-06-24T02:10:39;17.0;14.0;
52290;PMS5003;39663;45.432;28.050;2023-06-24T02:11:12;15.0;13.0;
52290;PMS5003;39663;45.432;28.050;2023-06-24T02:11:46;35.0;31.0;
52290;PMS5003;39663;45.432;28.050;2023-06-24T02:12:19;23.0;21.0;
52290;PMS5003;39663;45.432;28.050;2023-06-24T02:12:51;43.0;39.0;
52290;PMS5003;39663;45.432;28.050;2023-06-24T02:13:25;19.0;19.0;
52290;PMS5003;39663;45.432;28.050;2023-06-24T02:13:57;17.0;17.0;
52290;PMS5003;39663;45.432;28.050;2023-06-24T02:14:31;33.0;31.0;
52290;PMS5003;39663;45.432;28.050;2023-06-24T02:15:04;28.0;25.0;
52290;PMS5003;39663;45.432;28.050;2023-06-24T02:15:39;17.0;16.0;
52290;PMS5003;39663;45.432;28.050;2023-06-24T02:16:11;27.0;26.0;
52290;PMS5003;39663;45.432;28.050;2023-06-24T02:16:45;21.0;18.0;
52290;PMS5003;39663;45.432;28.050;2023-06-24T02:17:18;35.0;34.0;
52290;PMS5003;39663;45.432;28.050;2023-06-24T02:17:51;21.0;21.0;
52290;PMS5003;39663;45.432;28.050;2023-06-24T02:18:24;28.0;24.0;
52290;PMS5003;39663;45.432;28.050;2023-06-24T02:18:56;36.0;35.0;
52290;PMS5003;39663;45.432;28.050;2023-06-24T02:19:29;28.0;27.0;
52290;PMS5003;39663;45.432;28.050;2023-06-24T02:20:01;27.0;25.0;
52290;PMS5003;39663;45.432;28.050;2023-06-24T02:20:35;24.0;24.0;
52290;PMS5003;39663;45.432;28.050;2023-06-24T02:21:07;31.0;28.0;
52290;PMS5003;39663;45.432;28.050;2023-06-24T02:21:39;34.0;34.0;
52290;PMS5003;39663;45.432;28.050;2023-06-24T02:22:12;53.0;47.0;
52290;PMS5003;39663;45.432;28.050;2023-06-24T02:22:45;35.0;33.0;
52290;PMS5003;39663;45.432;28.050;2023-06-24T02:23:17;19.0;17.0;
52290;PMS5003;39663;45.432;28.050;2023-06-24T02:23:49;19.0;18.0;
52290;PMS5003;39663;45.432;28.050;2023-06-24T02:24:22;36.0;33.0;
52290;PMS5003;39663;45.432;28.050;2023-06-24T02:24:54;35.0;35.0;
52290;PMS5003;39663;45.432;28.050;2023-06-24T02:25:27;30.0;29.0;
52290;PMS5003;39663;45.432;28.050;2023-06-24T02:25:58;30.0;29.0;
52290;PMS5003;39663;45.432;28.050;2023-06-24T02:26:32;24.0;23.0;
52290;PMS5003;39663;45.432;28.050;2023-06-24T02:27:05;33.0;30.0;
52290;PMS5003;39663;45.432;28.050;2023-06-24T02:27:37;26.0;26.0;
52290;PMS5003;39663;45.432;28.050;2023-06-24T02:28:09;25.0;25.0;
52290;PMS5003;39663;45.432;28.050;2023-06-24T02:28:41;28.0;26.0;
52290;PMS5003;39663;45.432;28.050;2023-06-24T02:29:14;22.0;22.0;
52290;PMS5003;39663;45.432;28.050;2023-06-24T02:29:47;28.0;26.0;
52290;PMS5003;39663;45.432;28.050;2023-06-24T02:30:20;30.0;27.0;
52290;PMS5003;39663;45.432;28.050;2023-06-24T02:30:52;18.0;18.0;
52290;PMS5003;39663;45.432;28.050;2023-06-24T02:31:24;23.0;20.0;
52290;PMS5003;39663;45.432;28.050;2023-06-24T02:31:56;20.0;20.0;
52290;PMS5003;39663;45.432;28.050;2023-06-24T02:32:28;27.0;23.0;
52290;PMS5003;39663;45.432;28.050;2023-06-24T02:32:59;18.0;18.0;
52290;PMS5003;39663;45.432;28.050;2023-06-24T02:33:31;23.0;20.0;
52290;PMS5003;39663;45.432;28.050;2023-06-24T02:34:03;25.0;24.0;
52290;PMS5003;39663;45.432;28.050;2023-06-24T02:34:34;20.0;18.0;
52290;PMS5003;39663;45.432;28.050;2023-06-24T02:35:07;20.0;20.0;
52290;PMS5003;39663;45.432;28.050;2023-06-24T02:35:39;24.0;23.0;
52290;PMS5003;39663;45.432;28.050;2023-06-24T02:36:10;17.0;15.0;
52290;PMS5003;39663;45.432;28.050;2023-06-24T02:36:42;19.0;18.0;
52290;PMS5003;39663;45.432;28.050;2023-06-24T02:37:13;19.0;17.0;
52290;PMS5003;39663;45.432;28.050;2023-06-24T02:37:45;18.0;16.0;
52290;PMS5003;39663;45.432;28.050;2023-06-24T02:38:17;19.0;19.0;
52290;PMS5003;39663;45.432;28.050;2023-06-24T02:38:48;15.0;15.0;
52290;PMS5003;39663;45.432;28.050;2023-06-24T02:39:20;18.0;16.0;
52290;PMS5003;39663;45.432;28.050;2023-06-24T02:39:51;15.0;14.0;
52290;PMS5003;39663;45.432;28.050;2023-06-24T02:40:23;18.0;18.0;
52290;PMS5003;39663;45.432;28.050;2023-06-24T02:40:55;20.0;19.0;
52290;PMS5003;39663;45.432;28.050;2023-06-24T02:41:27;16.0;16.0;
52290;PMS5003;39663;45.432;28.050;2023-06-24T02:41:59;17.0;17.0;
52290;PMS5003;39663;45.432;28.050;2023-06-24T02:42:30;15.0;14.0;
52290;PMS5003;39663;45.432;28.050;2023-06-24T02:43:01;17.0;17.0;
52290;PMS5003;39663;45.432;28.050;2023-06-24T02:43:33;17.0;17.0;
52290;PMS5003;39663;45.432;28.050;2023-06-24T02:44:04;19.0;15.0;
52290;PMS5003;39663;45.432;28.050;2023-06-24T02:44:36;18.0;15.0;
52290;PMS5003;39663;45.432;28.050;2023-06-24T02:45:09;18.0;17.0;
52290;PMS5003;39663;45.432;28.050;2023-06-24T02:45:41;18.0;17.0;
52290;PMS5003;39663;45.432;28.050;2023-06-24T02:46:13;18.0;18.0;
52290;PMS5003;39663;45.432;28.050;2023-06-24T02:46:46;15.0;15.0;
52290;PMS5003;39663;45.432;28.050;2023-06-24T02:47:19;15.0;14.0;
52290;PMS5003;39663;45.432;28.050;2023-06-24T02:47:52;14.0;12.0;
52290;PMS5003;39663;45.432;28.050;2023-06-24T02:48:25;12.0;12.0;
52290;PMS5003;39663;45.432;28.050;2023-06-24T02:48:59;13.0;13.0;
52290;PMS5003;39663;45.432;28.050;2023-06-24T02:49:30;20.0;20.0;
52290;PMS5003;39663;45.432;28.050;2023-06-24T02:50:02;18.0;15.0;
52290;PMS5003;39663;45.432;28.050;2023-06-24T02:50:36;16.0;15.0;
52290;PMS5003;39663;45.432;28.050;2023-06-24T02:51:09;15.0;14.0;
52290;PMS5003;39663;45.432;28.050;2023-06-24T02:51:41;14.0;14.0;
52290;PMS5003;39663;45.432;28.050;2023-06-24T02:52:15;15.0;14.0;
52290;PMS5003;39663;45.432;28.050;2023-06-24T02:52:46;14.0;14.0;
52290;PMS5003;39663;45.432;28.050;2023-06-24T02:53:18;13.0;13.0;
52290;PMS5003;39663;45.432;28.050;2023-06-24T02:53:50;14.0;12.0;
52290;PMS5003;39663;45.432;28.050;2023-06-24T02:54:22;14.0;13.0;
52290;PMS5003;39663;45.432;28.050;2023-06-24T02:54:54;16.0;16.0;
52290;PMS5003;39663;45.432;28.050;2023-06-24T02:55:27;16.0;15.0;
52290;PMS5003;39663;45.432;28.050;2023-06-24T02:55:59;16.0;16.0;
52290;PMS5003;39663;45.432;28.050;2023-06-24T02:56:32;15.0;12.0;
52290;PMS5003;39663;45.432;28.050;2023-06-24T02:57:04;15.0;15.0;
52290;PMS5003;39663;45.432;28.050;2023-06-24T02:57:37;15.0;14.0;
52290;PMS5003;39663;45.432;28.050;2023-06-24T02:58:09;14.0;13.0;
52290;PMS5003;39663;45.432;28.050;2023-06-24T02:58:41;11.0;11.0;
52290;PMS5003;39663;45.432;28.050;2023-06-24T02:59:13;16.0;15.0;
52290;PMS5003;39663;45.432;28.050;2023-06-24T02:59:45;13.0;13.0;
52290;PMS5003;39663;45.432;28.050;2023-06-24T03:00:17;12.0;12.0;
52290;PMS5003;39663;45.432;28.050;2023-06-24T03:00:49;16.0;13.0;
52290;PMS5003;39663;45.432;28.050;2023-06-24T03:01:21;15.0;15.0;
52290;PMS5003;39663;45.432;28.050;2023-06-24T03:01:53;14.0;14.0;
52290;PMS5003;39663;45.432;28.050;2023-06-24T03:02:25;14.0;12.0;
52290;PMS5003;39663;45.432;28.050;2023-06-24T03:02:57;15.0;13.0;
52290;PMS5003;39663;45.432;28.050;2023-06-24T03:03:29;15.0;12.0;
52290;PMS5003;39663;45.432;28.050;2023-06-24T03:04:01;12.0;12.0;
52290;PMS5003;39663;45.432;28.050;2023-06-24T03:04:33;13.0;13.0;
52290;PMS5003;39663;45.432;28.050;2023-06-24T03:05:05;17.0;17.0;
52290;PMS5003;39663;45.432;28.050;2023-06-24T03:05:38;14.0;12.0;
52290;PMS5003;39663;45.432;28.050;2023-06-24T03:06:09;13.0;12.0;
52290;PMS5003;39663;45.432;28.050;2023-06-24T03:06:41;13.0;13.0;
52290;PMS5003;39663;45.432;28.050;2023-06-24T03:07:13;13.0;12.0;
52290;PMS5003;39663;45.432;28.050;2023-06-24T03:07:45;12.0;10.0;
52290;PMS5003;39663;45.432;28.050;2023-06-24T03:08:17;16.0;13.0;
52290;PMS5003;39663;45.432;28.050;2023-06-24T03:08:49;12.0;11.0;
52290;PMS5003;39663;45.432;28.050;2023-06-24T03:09:21;14.0;11.0;
52290;PMS5003;39663;45.432;28.050;2023-06-24T03:09:52;19.0;17.0;
52290;PMS5003;39663;45.432;28.050;2023-06-24T03:10:24;13.0;13.0;
52290;PMS5003;39663;45.432;28.050;2023-06-24T03:10:56;12.0;12.0;
52290;PMS5003;39663;45.432;28.050;2023-06-24T03:11:28;12.0;12.0;
52290;PMS5003;39663;45.432;28.050;2023-06-24T03:11:59;15.0;13.0;
52290;PMS5003;39663;45.432;28.050;2023-06-24T03:12:31;20.0;16.0;
52290;PMS5003;39663;45.432;28.050;2023-06-24T03:13:02;20.0;18.0;
52290;PMS5003;39663;45.432;28.050;2023-06-24T03:13:34;22.0;20.0;
52290;PMS5003;39663;45.432;28.050;2023-06-24T03:14:05;43.0;41.0;
52290;PMS5003;39663;45.432;28.050;2023-06-24T03:14:37;48.0;45.0;
52290;PMS5003;39663;45.432;28.050;2023-06-24T03:15:09;69.0;64.0;
52290;PMS5003;39663;45.432;28.050;2023-06-24T03:15:40;26.0;23.0;
52290;PMS5003;39663;45.432;28.050;2023-06-24T03:16:12;25.0;25.0;
52290;PMS5003;39663;45.432;28.050;2023-06-24T03:16:43;22.0;20.0;
52290;PMS5003;39663;45.432;28.050;2023-06-24T03:17:15;15.0;14.0;
52290;PMS5003;39663;45.432;28.050;2023-06-24T03:17:46;21.0;20.0;
52290;PMS5003;39663;45.432;28.050;2023-06-24T03:18:19;23.0;23.0;
52290;PMS5003;39663;45.432;28.050;2023-06-24T03:18:51;33.0;29.0;
52290;PMS5003;39663;45.432;28.050;2023-06-24T03:19:22;26.0;26.0;
52290;PMS5003;39663;45.432;28.050;2023-06-24T03:19:53;24.0;23.0;
52290;PMS5003;39663;45.432;28.050;2023-06-24T03:20:25;15.0;13.0;
52290;PMS5003;39663;45.432;28.050;2023-06-24T03:20:57;17.0;17.0;
52290;PMS5003;39663;45.432;28.050;2023-06-24T03:21:28;17.0;16.0;
52290;PMS5003;39663;45.432;28.050;2023-06-24T03:22:00;17.0;17.0;
52290;PMS5003;39663;45.432;28.050;2023-06-24T03:22:31;21.0;19.0;
52290;PMS5003;39663;45.432;28.050;2023-06-24T03:23:02;22.0;21.0;
52290;PMS5003;39663;45.432;28.050;2023-06-24T03:23:34;17.0;16.0;
52290;PMS5003;39663;45.432;28.050;2023-06-24T03:24:06;19.0;19.0;
52290;PMS5003;39663;45.432;28.050;2023-06-24T03:24:37;71.0;67.0;
52290;PMS5003;39663;45.432;28.050;2023-06-24T03:25:09;53.0;46.0;
52290;PMS5003;39663;45.432;28.050;2023-06-24T03:25:40;31.0;27.0;
52290;PMS5003;39663;45.432;28.050;2023-06-24T03:26:12;18.0;17.0;
52290;PMS5003;39663;45.432;28.050;2023-06-24T03:26:43;21.0;19.0;
52290;PMS5003;39663;45.432;28.050;2023-06-24T03:27:15;20.0;18.0;
52290;PMS5003;39663;45.432;28.050;2023-06-24T03:27:46;22.0;19.0;
52290;PMS5003;39663;45.432;28.050;2023-06-24T03:28:18;29.0;24.0;
52290;PMS5003;39663;45.432;28.050;2023-06-24T03:28:49;23.0;23.0;
52290;PMS5003;39663;45.432;28.050;2023-06-24T03:29:20;20.0;20.0;
52290;PMS5003;39663;45.432;28.050;2023-06-24T03:29:52;19.0;18.0;
52290;PMS5003;39663;45.432;28.050;2023-06-24T03:30:24;23.0;22.0;
52290;PMS5003;39663;45.432;28.050;2023-06-24T03:30:55;38.0;34.0;
52290;PMS5003;39663;45.432;28.050;2023-06-24T03:31:27;27.0;27.0;
52290;PMS5003;39663;45.432;28.050;2023-06-24T03:31:59;23.0;21.0;
52290;PMS5003;39663;45.432;28.050;2023-06-24T03:32:30;21.0;21.0;
52290;PMS5003;39663;45.432;28.050;2023-06-24T03:33:02;22.0;21.0;
52290;PMS5003;39663;45.432;28.050;2023-06-24T03:33:34;31.0;26.0;
52290;PMS5003;39663;45.432;28.050;2023-06-24T03:34:05;29.0;25.0;